Milwaukee, Wisconsin
Traffic Map
Current Weather Conditions
Milwaukee, Wisconsin
Clear
Clear
11°
Feels Like: 11°
Wind Chill: 11° Ceiling: Unl
Heat Index: 11° Visibility: 10mi
Dew Point: Wind: 8mph
Humidity: 68% Direction: 360° (N)
Pressure: 30.15in Gusts: 0mph
Raw Report DataKMKE 220352Z 36007KT 10SM CLR 11/05 A3015 RMK AO2 SLP212 T01060050
Traffic Incident Summary
Active as of:
Severity:
Category:
InformationThere was an issue retrieving the traffic information for this location. Please try a different location or try again shortly.
Advertisements
Track Severe Weather on mobile